createdAt,value
2023-04-16T00:00:03.028Z,33.37
2023-04-16T00:00:33.113Z,33.43
2023-04-16T00:01:03.231Z,33.43
2023-04-16T00:01:33.298Z,33.39
2023-04-16T00:02:03.430Z,33.45
2023-04-16T00:02:33.489Z,33.40
2023-04-16T00:03:03.639Z,33.51
2023-04-16T00:03:33.921Z,33.46
2023-04-16T00:04:03.861Z,33.46
2023-04-16T00:04:33.741Z,33.40
2023-04-16T00:05:03.816Z,33.45
2023-04-16T00:06:03.735Z,33.41
2023-04-16T00:06:33.796Z,33.45
2023-04-16T00:07:03.877Z,33.44
2023-04-16T00:07:33.985Z,33.46
2023-04-16T00:08:04.046Z,33.49
2023-04-16T00:08:34.134Z,33.46
2023-04-16T00:09:04.219Z,33.53
2023-04-16T00:09:34.314Z,33.46
2023-04-16T00:10:04.317Z,33.53
2023-04-16T00:10:34.421Z,33.47
2023-04-16T00:11:04.428Z,33.52
2023-04-16T00:11:34.442Z,33.47
2023-04-16T00:12:04.447Z,33.49
2023-04-16T00:12:34.446Z,33.47
2023-04-16T00:13:04.453Z,33.47
2023-04-16T00:13:34.452Z,33.40
2023-04-16T00:14:04.462Z,33.48
2023-04-16T00:14:34.481Z,33.42
2023-04-16T00:15:04.478Z,33.35
2023-04-16T00:15:34.477Z,33.39
2023-04-16T00:16:04.480Z,33.42
2023-04-16T00:16:34.574Z,33.33
2023-04-16T00:17:04.620Z,33.42
2023-04-16T00:17:34.595Z,33.46
2023-04-16T00:18:04.583Z,33.45
2023-04-16T00:18:34.600Z,33.42
2023-04-16T00:19:04.599Z,33.42
2023-04-16T00:19:34.627Z,33.36
2023-04-16T00:20:04.632Z,33.33
2023-04-16T00:20:34.644Z,33.42
2023-04-16T00:21:04.640Z,33.39
2023-04-16T00:21:34.657Z,33.36
2023-04-16T00:22:04.667Z,33.28
2023-04-16T00:22:34.676Z,33.33
2023-04-16T00:23:04.698Z,33.24
2023-04-16T00:23:34.682Z,33.28
2023-04-16T00:24:34.773Z,33.33
2023-04-16T00:25:04.783Z,33.36
2023-04-16T00:25:34.789Z,33.37
2023-04-16T00:26:04.793Z,33.33
2023-04-16T00:26:34.823Z,33.45
2023-04-16T00:27:04.892Z,33.45
2023-04-16T00:27:34.892Z,33.43
2023-04-16T00:28:04.889Z,33.41
2023-04-16T00:28:34.895Z,33.51
2023-04-16T00:29:04.897Z,33.44
2023-04-16T00:29:34.898Z,33.45
2023-04-16T00:30:04.913Z,33.44
2023-04-16T00:30:34.944Z,33.54
2023-04-16T00:31:04.991Z,33.58
2023-04-16T00:31:35.037Z,33.51
2023-04-16T00:32:05.097Z,33.53
2023-04-16T00:32:35.133Z,33.51
2023-04-16T00:33:05.152Z,33.43
2023-04-16T00:33:35.160Z,33.46
2023-04-16T00:34:05.166Z,33.47
2023-04-16T00:34:35.179Z,33.50
2023-04-16T00:35:05.189Z,33.53
2023-04-16T00:35:35.184Z,33.54
2023-04-16T00:36:05.190Z,33.56
2023-04-16T00:36:35.208Z,33.56
2023-04-16T00:37:05.300Z,33.63
2023-04-16T00:37:35.286Z,33.59
2023-04-16T00:38:05.281Z,33.64
2023-04-16T00:38:35.332Z,33.50
2023-04-16T00:39:05.321Z,33.53
2023-04-16T00:40:05.422Z,33.49
2023-04-16T00:40:35.415Z,33.40
2023-04-16T00:41:05.441Z,33.35
2023-04-16T00:41:35.430Z,33.41
2023-04-16T00:42:05.442Z,33.42
2023-04-16T00:42:35.463Z,33.34
2023-04-16T00:43:05.458Z,33.34
2023-04-16T00:43:35.466Z,33.27
2023-04-16T00:44:05.483Z,33.31
2023-04-16T00:44:35.479Z,33.27
2023-04-16T00:45:05.485Z,33.27
2023-04-16T00:45:35.491Z,33.37
2023-04-16T00:46:05.579Z,33.34
2023-04-16T00:46:35.616Z,33.27
2023-04-16T00:47:05.617Z,33.30
2023-04-16T00:47:35.646Z,33.27
2023-04-16T00:48:05.627Z,33.34
2023-04-16T00:48:35.642Z,33.37
2023-04-16T00:49:05.636Z,33.33
2023-04-16T00:49:35.652Z,33.40
2023-04-16T00:50:05.657Z,33.35
2023-04-16T00:50:35.682Z,33.40
2023-04-16T00:51:05.666Z,33.41
2023-04-16T00:51:35.668Z,33.43
2023-04-16T00:52:05.698Z,33.44
2023-04-16T00:52:35.689Z,33.53
2023-04-16T00:53:05.695Z,33.46
2023-04-16T00:53:35.699Z,33.51
2023-04-16T00:54:05.721Z,33.48
2023-04-16T00:54:35.728Z,33.54
2023-04-16T00:55:35.802Z,33.53
2023-04-16T00:56:05.823Z,33.56
2023-04-16T00:56:35.806Z,33.57
2023-04-16T00:57:05.827Z,33.53
2023-04-16T00:57:35.830Z,33.54
2023-04-16T00:58:05.841Z,33.56
2023-04-16T00:58:35.841Z,33.60
2023-04-16T00:59:05.836Z,33.54
2023-04-16T00:59:35.831Z,33.53
2023-04-16T01:00:05.932Z,33.53
2023-04-16T01:00:36.017Z,33.51
2023-04-16T01:01:06.145Z,33.54
2023-04-16T01:01:36.329Z,33.47
2023-04-16T01:02:06.400Z,33.47
2023-04-16T01:02:36.401Z,33.50
2023-04-16T01:03:06.496Z,33.45
2023-04-16T01:03:36.545Z,33.45
2023-04-16T01:04:06.547Z,33.47
2023-04-16T01:04:36.690Z,33.45
2023-04-16T01:05:06.530Z,33.51
2023-04-16T01:05:36.603Z,33.50
2023-04-16T01:06:06.696Z,33.50
2023-04-16T01:06:36.807Z,33.49
2023-04-16T01:07:06.886Z,33.51
2023-04-16T01:07:36.985Z,33.57
2023-04-16T01:08:07.067Z,33.59
2023-04-16T01:08:37.159Z,33.61
2023-04-16T01:09:07.372Z,33.56
2023-04-16T01:09:37.322Z,33.56
2023-04-16T01:10:07.302Z,33.60
2023-04-16T01:11:07.408Z,33.56
2023-04-16T01:11:37.424Z,33.60
2023-04-16T01:12:07.426Z,33.55
2023-04-16T01:12:37.429Z,33.55
2023-04-16T01:13:07.438Z,33.59
2023-04-16T01:13:37.456Z,33.57
2023-04-16T01:14:07.457Z,33.57
2023-04-16T01:14:37.455Z,33.65
2023-04-16T01:15:07.468Z,33.62
2023-04-16T01:15:37.508Z,33.59
2023-04-16T01:16:07.575Z,33.60
2023-04-16T01:16:37.597Z,33.65
2023-04-16T01:17:07.624Z,33.58
2023-04-16T01:17:37.666Z,33.56
2023-04-16T01:18:07.677Z,33.62
2023-04-16T01:18:37.707Z,33.56
2023-04-16T01:19:07.946Z,33.55
2023-04-16T01:19:37.721Z,33.54
2023-04-16T01:20:07.722Z,33.53
2023-04-16T01:20:37.738Z,33.54
2023-04-16T01:21:07.746Z,33.53
2023-04-16T01:21:37.763Z,33.59
2023-04-16T01:22:07.768Z,33.60
2023-04-16T01:22:37.779Z,33.54
2023-04-16T01:23:07.784Z,33.54
2023-04-16T01:23:37.804Z,33.51
2023-04-16T01:24:07.802Z,33.59
2023-04-16T01:24:37.809Z,33.56
2023-04-16T01:25:07.857Z,33.62
2023-04-16T01:25:37.854Z,33.59
2023-04-16T01:26:37.944Z,33.65
2023-04-16T01:27:07.952Z,33.62
2023-04-16T01:28:08.028Z,33.59
2023-04-16T01:28:38.041Z,33.59
2023-04-16T01:29:08.302Z,33.65
2023-04-16T01:29:38.113Z,33.66
2023-04-16T01:30:08.119Z,33.60
2023-04-16T01:30:38.149Z,33.60
2023-04-16T01:31:08.162Z,33.56
2023-04-16T01:31:38.290Z,33.63
2023-04-16T01:32:08.277Z,33.63
2023-04-16T01:32:38.299Z,33.62
2023-04-16T01:33:08.291Z,33.65
2023-04-16T01:33:38.298Z,33.65
2023-04-16T01:34:08.307Z,33.72
2023-04-16T01:34:38.305Z,33.70
2023-04-16T01:35:08.311Z,33.70
2023-04-16T01:35:38.326Z,33.66
2023-04-16T01:36:08.347Z,33.72
2023-04-16T01:36:38.418Z,33.70
2023-04-16T01:37:08.427Z,33.67
2023-04-16T01:37:38.444Z,33.63
2023-04-16T01:38:08.447Z,33.64
2023-04-16T01:38:38.467Z,33.61
2023-04-16T01:39:08.791Z,33.65
2023-04-16T01:39:38.546Z,33.63
2023-04-16T01:40:08.547Z,33.66
2023-04-16T01:40:38.574Z,33.63
2023-04-16T01:41:08.557Z,33.64
2023-04-16T01:41:38.589Z,33.58
2023-04-16T01:42:08.592Z,33.60
2023-04-16T01:43:08.680Z,33.60
2023-04-16T01:43:40.319Z,33.55
2023-04-16T01:44:08.749Z,33.60
2023-04-16T01:44:38.752Z,33.60
2023-04-16T01:45:08.755Z,33.61
2023-04-16T01:45:38.758Z,33.60
2023-04-16T01:46:08.852Z,33.57
2023-04-16T01:46:38.869Z,33.63
2023-04-16T01:47:08.882Z,33.52
2023-04-16T01:47:38.948Z,33.51
2023-04-16T01:48:08.939Z,33.49
2023-04-16T01:48:38.939Z,33.45
2023-04-16T01:49:09.102Z,33.51
2023-04-16T01:49:38.987Z,33.51
2023-04-16T01:50:08.997Z,33.52
2023-04-16T01:50:39.014Z,33.54
2023-04-16T01:51:09.013Z,33.55
2023-04-16T01:51:39.034Z,33.55
2023-04-16T01:52:09.042Z,33.61
2023-04-16T01:52:39.042Z,33.62
2023-04-16T01:53:09.053Z,33.74
2023-04-16T01:53:39.051Z,33.67
2023-04-16T01:54:39.138Z,33.74
2023-04-16T01:55:09.154Z,33.76
2023-04-16T01:55:39.158Z,33.77
2023-04-16T01:56:09.178Z,33.74
2023-04-16T01:56:39.174Z,33.76
2023-04-16T01:57:09.190Z,33.74
2023-04-16T01:57:39.193Z,33.76
2023-04-16T01:58:09.204Z,33.77
2023-04-16T01:58:39.202Z,33.78
2023-04-16T01:59:09.573Z,33.84
2023-04-16T01:59:39.310Z,33.77
2023-04-16T02:00:09.403Z,33.83
2023-04-16T02:00:39.558Z,33.78
2023-04-16T02:01:09.617Z,33.77
2023-04-16T02:01:39.610Z,33.77
2023-04-16T02:02:09.755Z,33.77
2023-04-16T02:02:39.849Z,33.78
2023-04-16T02:03:09.927Z,33.82
2023-04-16T02:03:40.107Z,33.83
2023-04-16T02:04:10.034Z,33.82
2023-04-16T02:04:40.029Z,33.74
2023-04-16T02:05:10.109Z,33.74
2023-04-16T02:05:40.192Z,33.79
2023-04-16T02:06:10.272Z,33.77
2023-04-16T02:06:40.366Z,33.72
2023-04-16T02:07:10.447Z,33.74
2023-04-16T02:07:40.541Z,33.70
2023-04-16T02:08:10.629Z,33.70
2023-04-16T02:08:40.702Z,33.72
2023-04-16T02:09:10.968Z,33.71
2023-04-16T02:09:40.810Z,33.76
2023-04-16T02:10:10.836Z,33.72
2023-04-16T02:10:40.855Z,33.74
2023-04-16T02:11:10.881Z,33.68
2023-04-16T02:11:40.877Z,33.76
2023-04-16T02:12:10.910Z,33.76
2023-04-16T02:12:40.950Z,33.78
2023-04-16T02:13:10.961Z,33.81
2023-04-16T02:13:40.985Z,33.84
2023-04-16T02:14:10.973Z,33.91
2023-04-16T02:15:11.060Z,33.92
2023-04-16T02:15:41.068Z,33.99
2023-04-16T02:16:11.082Z,34.00
2023-04-16T02:16:41.157Z,34.04
2023-04-16T02:17:11.156Z,34.03
2023-04-16T02:17:41.235Z,33.99
2023-04-16T02:18:11.239Z,34.03
2023-04-16T02:18:41.237Z,34.08
2023-04-16T02:19:41.320Z,34.11
2023-04-16T02:20:11.333Z,34.17
2023-04-16T02:20:41.333Z,34.17
2023-04-16T02:21:11.337Z,34.17
2023-04-16T02:21:41.345Z,34.14
2023-04-16T02:22:11.354Z,34.14
2023-04-16T02:22:41.357Z,34.17
2023-04-16T02:23:11.368Z,34.13
2023-04-16T02:23:41.371Z,34.20
2023-04-16T02:24:11.380Z,34.17
2023-04-16T02:24:41.381Z,34.13
2023-04-16T02:25:11.403Z,34.17
2023-04-16T02:25:41.403Z,34.17
2023-04-16T02:26:11.413Z,34.17
2023-04-16T02:26:41.461Z,34.19
2023-04-16T02:27:11.447Z,34.19
2023-04-16T02:28:11.544Z,34.16
2023-04-16T02:28:41.548Z,34.14
2023-04-16T02:29:11.806Z,34.17
2023-04-16T02:29:41.560Z,34.08
2023-04-16T02:30:11.563Z,34.08
2023-04-16T02:30:41.583Z,34.08
2023-04-16T02:31:11.592Z,34.08
2023-04-16T02:31:41.628Z,34.10
2023-04-16T02:32:11.704Z,34.08
2023-04-16T02:32:41.756Z,34.06
2023-04-16T02:33:11.786Z,34.04
2023-04-16T02:33:41.792Z,34.03
2023-04-16T02:34:11.806Z,34.04
2023-04-16T02:35:11.884Z,34.09
2023-04-16T02:35:41.893Z,34.10
2023-04-16T02:36:11.898Z,34.09
2023-04-16T02:36:41.920Z,34.13
2023-04-16T02:37:11.906Z,34.11
2023-04-16T02:37:41.910Z,34.05
2023-04-16T02:38:11.909Z,34.06
2023-04-16T02:38:41.921Z,34.08
2023-04-16T02:39:11.910Z,34.13
2023-04-16T02:39:41.917Z,34.09
2023-04-16T02:40:11.939Z,34.06
2023-04-16T02:40:41.948Z,34.09
2023-04-16T02:41:11.950Z,34.11
2023-04-16T02:41:41.973Z,34.06
2023-04-16T02:42:11.995Z,34.06
2023-04-16T02:42:41.981Z,34.08
2023-04-16T02:43:42.087Z,34.03
2023-04-16T02:44:12.070Z,34.07
2023-04-16T02:44:42.087Z,34.03
2023-04-16T02:45:12.087Z,34.05
2023-04-16T02:45:42.137Z,34.02
2023-04-16T02:46:12.152Z,34.02
2023-04-16T02:46:42.198Z,33.95
2023-04-16T02:47:12.267Z,33.92
2023-04-16T02:47:42.372Z,33.95
2023-04-16T02:48:12.358Z,33.94
2023-04-16T02:48:42.368Z,33.88
2023-04-16T02:49:12.373Z,33.94
2023-04-16T02:49:42.388Z,33.89
2023-04-16T02:50:12.416Z,33.87
2023-04-16T02:50:42.400Z,33.80
2023-04-16T02:51:12.410Z,33.80
2023-04-16T02:51:42.433Z,33.74
2023-04-16T02:52:14.372Z,33.76
2023-04-16T02:52:42.514Z,33.74
2023-04-16T02:53:12.535Z,33.74
2023-04-16T02:54:12.602Z,33.75
2023-04-16T02:54:42.617Z,33.80
2023-04-16T02:55:12.629Z,33.79
2023-04-16T02:55:42.626Z,33.82
2023-04-16T02:56:12.635Z,33.86
2023-04-16T02:56:42.661Z,33.87
2023-04-16T02:57:12.665Z,33.91
2023-04-16T02:57:42.786Z,33.91
2023-04-16T02:58:12.765Z,33.96
2023-04-16T02:58:42.790Z,34.03
2023-04-16T02:59:12.800Z,34.03
2023-04-16T02:59:42.912Z,34.04
2023-04-16T03:00:12.994Z,34.06
2023-04-16T03:00:43.072Z,34.10
2023-04-16T03:01:13.188Z,34.13
2023-04-16T03:01:43.186Z,34.17
2023-04-16T03:02:13.277Z,34.17
2023-04-16T03:02:43.433Z,34.14
2023-04-16T03:03:13.516Z,34.17
2023-04-16T03:03:43.414Z,34.16
2023-04-16T03:04:13.605Z,34.18
2023-04-16T03:04:43.767Z,34.20
2023-04-16T03:05:13.611Z,34.20
2023-04-16T03:05:43.687Z,34.20
2023-04-16T03:06:13.780Z,34.17
2023-04-16T03:06:43.890Z,34.17
2023-04-16T03:07:13.982Z,34.17
2023-04-16T03:07:44.061Z,34.22
2023-04-16T03:08:14.145Z,34.18
2023-04-16T03:08:44.228Z,34.22
2023-04-16T03:09:14.317Z,34.21
2023-04-16T03:09:44.419Z,34.23
2023-04-16T03:10:14.429Z,34.32
2023-04-16T03:10:44.444Z,34.30
2023-04-16T03:11:14.443Z,34.31
2023-04-16T03:11:44.490Z,34.22
2023-04-16T03:12:14.486Z,34.26
2023-04-16T03:12:44.499Z,34.25
2023-04-16T03:13:14.525Z,34.25
2023-04-16T03:13:44.519Z,34.24
2023-04-16T03:14:44.617Z,34.26
2023-04-16T03:15:14.615Z,34.19
2023-04-16T03:15:44.676Z,34.21
2023-04-16T03:16:14.779Z,34.25
2023-04-16T03:16:44.751Z,34.25
2023-04-16T03:17:14.753Z,34.23
2023-04-16T03:17:44.886Z,34.25
2023-04-16T03:18:14.764Z,34.23
2023-04-16T03:18:44.766Z,34.18
2023-04-16T03:19:14.791Z,34.18
2023-04-16T03:19:44.790Z,34.19
2023-04-16T03:20:14.801Z,34.21
2023-04-16T03:20:44.796Z,34.16
2023-04-16T03:21:14.815Z,34.17
2023-04-16T03:21:44.840Z,34.13
2023-04-16T03:22:14.856Z,34.14
2023-04-16T03:22:44.848Z,34.11
2023-04-16T03:23:14.846Z,34.14
2023-04-16T03:23:44.859Z,34.11
2023-04-16T03:24:14.861Z,34.13
2023-04-16T03:24:44.879Z,34.17
2023-04-16T03:25:14.878Z,34.14
2023-04-16T03:25:44.881Z,34.14
2023-04-16T03:26:14.892Z,34.08
2023-04-16T03:26:44.917Z,34.09
2023-04-16T03:27:14.921Z,34.06
2023-04-16T03:27:44.927Z,34.10
2023-04-16T03:28:45.028Z,34.13
2023-04-16T03:29:15.023Z,34.14
2023-04-16T03:30:15.103Z,34.13
2023-04-16T03:30:45.118Z,34.17
2023-04-16T03:31:15.160Z,34.11
2023-04-16T03:31:45.167Z,34.12
2023-04-16T03:32:15.161Z,34.09
2023-04-16T03:32:45.211Z,34.12
2023-04-16T03:33:15.242Z,34.03
2023-04-16T03:33:45.250Z,34.03
2023-04-16T03:34:15.254Z,33.98
2023-04-16T03:34:45.266Z,34.00
2023-04-16T03:35:15.263Z,33.97
2023-04-16T03:35:45.268Z,33.96
2023-04-16T03:36:15.288Z,33.99
2023-04-16T03:36:45.289Z,34.03
2023-04-16T03:37:15.300Z,34.06
2023-04-16T03:37:45.302Z,34.00
2023-04-16T03:38:45.394Z,34.03
2023-04-16T03:39:15.413Z,34.03
2023-04-16T03:39:45.415Z,34.08
2023-04-16T03:40:15.416Z,34.00
2023-04-16T03:40:45.421Z,34.02
2023-04-16T03:41:15.442Z,34.08
2023-04-16T03:41:45.451Z,34.09
2023-04-16T03:42:15.453Z,34.11
2023-04-16T03:42:45.467Z,34.10
2023-04-16T03:43:15.467Z,34.19
2023-04-16T03:43:45.481Z,34.16
2023-04-16T03:44:15.516Z,34.18
2023-04-16T03:44:45.494Z,34.22
2023-04-16T03:45:45.592Z,34.29
2023-04-16T03:46:15.606Z,34.29
2023-04-16T03:46:45.699Z,34.31
2023-04-16T03:47:15.613Z,34.31
2023-04-16T03:47:45.674Z,34.30
2023-04-16T03:48:15.693Z,34.30
2023-04-16T03:48:45.705Z,34.37
2023-04-16T03:49:15.707Z,34.35
2023-04-16T03:49:45.718Z,34.34
2023-04-16T03:50:15.717Z,34.32
2023-04-16T03:50:45.726Z,34.30
2023-04-16T03:51:15.728Z,34.32
2023-04-16T03:51:45.748Z,34.32
2023-04-16T03:52:15.746Z,34.27
2023-04-16T03:52:45.754Z,34.32
2023-04-16T03:53:15.762Z,34.31
2023-04-16T03:53:45.774Z,34.30
2023-04-16T03:54:15.780Z,34.28
2023-04-16T03:54:45.790Z,34.30
2023-04-16T03:55:15.788Z,34.30
2023-04-16T03:55:45.795Z,34.26
2023-04-16T03:56:15.806Z,34.27
2023-04-16T03:56:45.827Z,34.28
2023-04-16T03:57:15.861Z,34.25
2023-04-16T03:57:45.836Z,34.22
2023-04-16T03:58:45.927Z,34.27
2023-04-16T03:59:15.935Z,34.23
2023-04-16T03:59:46.061Z,34.24
2023-04-16T04:00:16.123Z,34.21
2023-04-16T04:00:46.202Z,34.24
2023-04-16T04:01:16.295Z,34.27
2023-04-16T04:01:46.428Z,34.17
2023-04-16T04:02:16.504Z,34.19
2023-04-16T04:02:46.630Z,34.20
2023-04-16T04:03:16.828Z,34.19
2023-04-16T04:03:46.863Z,34.23
2023-04-16T04:04:16.710Z,34.21
2023-04-16T04:04:46.758Z,34.26
2023-04-16T04:05:16.776Z,34.21
2023-04-16T04:05:46.865Z,34.21
2023-04-16T04:06:16.945Z,34.23
2023-04-16T04:06:47.043Z,34.24
2023-04-16T04:07:17.120Z,34.21
2023-04-16T04:07:47.199Z,34.26
2023-04-16T04:08:17.278Z,34.21
2023-04-16T04:08:47.378Z,34.19
2023-04-16T04:09:17.460Z,34.22
2023-04-16T04:09:47.476Z,34.22
2023-04-16T04:10:17.473Z,34.18
2023-04-16T04:10:47.469Z,34.15
2023-04-16T04:11:17.513Z,34.10
2023-04-16T04:11:47.509Z,34.06
2023-04-16T04:12:17.619Z,34.11
2023-04-16T04:12:47.632Z,34.09
2023-04-16T04:13:17.634Z,34.07
2023-04-16T04:13:47.652Z,34.10
2023-04-16T04:14:17.655Z,34.11
2023-04-16T04:14:47.660Z,34.10
2023-04-16T04:15:17.692Z,34.15
2023-04-16T04:15:47.730Z,34.16
2023-04-16T04:16:17.801Z,34.16
2023-04-16T04:16:47.920Z,34.14
2023-04-16T04:17:17.852Z,34.15
2023-04-16T04:17:47.886Z,34.14
2023-04-16T04:18:17.899Z,34.14
2023-04-16T04:18:47.902Z,34.10
2023-04-16T04:19:17.951Z,34.11
2023-04-16T04:20:00.502Z,34.17
2023-04-16T04:20:17.939Z,34.14
2023-04-16T04:21:17.955Z,34.19
2023-04-16T04:21:47.984Z,34.16
2023-04-16T04:22:18.000Z,34.28
2023-04-16T04:22:47.982Z,34.23
2023-04-16T04:23:17.988Z,34.23
2023-04-16T04:23:47.990Z,34.26
2023-04-16T04:24:17.999Z,34.16
2023-04-16T04:24:48.001Z,34.22
2023-04-16T04:25:17.997Z,34.27
2023-04-16T04:25:48.046Z,34.22
2023-04-16T04:26:18.141Z,34.23
2023-04-16T04:26:48.139Z,34.27
2023-04-16T04:27:18.154Z,34.23
2023-04-16T04:27:48.152Z,34.23
2023-04-16T04:28:18.161Z,34.31
2023-04-16T04:28:48.166Z,34.31
2023-04-16T04:29:18.174Z,34.32
2023-04-16T04:29:48.176Z,34.35
2023-04-16T04:30:18.183Z,34.36
2023-04-16T04:30:48.208Z,34.36
2023-04-16T04:31:18.234Z,34.35
2023-04-16T04:31:48.269Z,34.32
2023-04-16T04:32:18.389Z,34.32
2023-04-16T04:32:48.439Z,34.38
2023-04-16T04:33:18.511Z,34.31
2023-04-16T04:33:48.544Z,34.31
2023-04-16T04:34:18.563Z,34.38
2023-04-16T04:34:48.559Z,34.35
2023-04-16T04:35:18.562Z,34.28
2023-04-16T04:35:48.561Z,34.35
2023-04-16T04:36:18.577Z,34.32
2023-04-16T04:36:48.585Z,34.37
2023-04-16T04:37:18.607Z,34.37
2023-04-16T04:37:48.597Z,34.37
2023-04-16T04:38:48.686Z,34.35
2023-04-16T04:39:18.699Z,34.38
2023-04-16T04:39:48.711Z,34.30
2023-04-16T04:40:18.723Z,34.32
2023-04-16T04:40:48.712Z,34.36
2023-04-16T04:41:18.736Z,34.32
2023-04-16T04:41:48.724Z,34.32
2023-04-16T04:42:18.734Z,34.32
2023-04-16T04:42:48.760Z,34.32
2023-04-16T04:43:18.746Z,34.31
2023-04-16T04:43:48.751Z,34.25
2023-04-16T04:44:18.752Z,34.31
2023-04-16T04:44:48.758Z,34.31
2023-04-16T04:45:18.763Z,34.28
2023-04-16T04:45:48.785Z,34.29
2023-04-16T04:46:18.911Z,34.24
2023-04-16T04:46:48.887Z,34.20
2023-04-16T04:47:18.926Z,34.17
2023-04-16T04:47:48.976Z,34.20
2023-04-16T04:48:18.946Z,34.24
2023-04-16T04:48:48.934Z,34.23
2023-04-16T04:49:18.926Z,34.20
2023-04-16T04:49:48.935Z,34.19
2023-04-16T04:50:18.960Z,34.20
2023-04-16T04:50:48.976Z,34.23
2023-04-16T04:51:18.985Z,34.23
2023-04-16T04:51:48.985Z,34.23
2023-04-16T04:52:19.007Z,34.24
2023-04-16T04:52:48.993Z,34.18
2023-04-16T04:53:19.005Z,34.19
2023-04-16T04:53:49.007Z,34.17
2023-04-16T04:54:19.021Z,34.14
2023-04-16T04:54:49.026Z,34.15
2023-04-16T04:55:19.045Z,34.16
2023-04-16T04:55:52.344Z,34.13
2023-04-16T04:56:19.173Z,34.16
2023-04-16T04:56:49.175Z,34.20
2023-04-16T04:57:19.193Z,34.20
2023-04-16T04:57:49.197Z,34.16
2023-04-16T04:58:19.215Z,34.20
2023-04-16T04:58:49.212Z,34.18
2023-04-16T04:59:19.259Z,34.19
2023-04-16T04:59:49.370Z,34.26
2023-04-16T05:00:19.441Z,34.25
2023-04-16T05:00:49.567Z,34.24
2023-04-16T05:01:19.558Z,34.27
2023-04-16T05:01:49.618Z,34.27
2023-04-16T05:02:19.693Z,34.24
2023-04-16T05:02:49.900Z,34.27
2023-04-16T05:03:19.770Z,34.24
2023-04-16T05:03:49.843Z,34.25
2023-04-16T05:04:19.888Z,34.28
2023-04-16T05:04:49.876Z,34.32
2023-04-16T05:05:20.003Z,34.29
2023-04-16T05:05:50.015Z,34.31
2023-04-16T05:06:20.090Z,34.32
2023-04-16T05:06:50.179Z,34.33
2023-04-16T05:07:20.271Z,34.36
2023-04-16T05:07:50.348Z,34.40
2023-04-16T05:08:20.425Z,34.37
2023-04-16T05:08:50.513Z,34.36
2023-04-16T05:09:20.597Z,34.36
2023-04-16T05:09:50.603Z,34.39
2023-04-16T05:10:20.607Z,34.36
2023-04-16T05:10:50.694Z,34.38
2023-04-16T05:11:20.706Z,34.36
2023-04-16T05:11:50.715Z,34.36
2023-04-16T05:12:20.725Z,34.37
2023-04-16T05:12:50.731Z,34.41
2023-04-16T05:13:50.830Z,34.41
2023-04-16T05:14:20.846Z,34.42
2023-04-16T05:14:50.860Z,34.42
2023-04-16T05:15:20.850Z,34.44
2023-04-16T05:15:50.867Z,34.40
2023-04-16T05:16:20.919Z,34.36
2023-04-16T05:16:51.046Z,34.39
2023-04-16T05:17:21.077Z,34.37
2023-04-16T05:17:51.125Z,34.42
2023-04-16T05:18:21.116Z,34.43
2023-04-16T05:18:51.129Z,34.49
2023-04-16T05:19:21.129Z,34.48
2023-04-16T05:19:51.145Z,34.42
2023-04-16T05:20:21.136Z,34.45
2023-04-16T05:20:51.153Z,34.42
2023-04-16T05:21:21.156Z,34.46
2023-04-16T05:21:51.154Z,34.48
2023-04-16T05:22:21.197Z,34.46
2023-04-16T05:22:51.208Z,34.45
2023-04-16T05:23:21.209Z,34.42
2023-04-16T05:23:51.209Z,34.43
2023-04-16T05:24:21.218Z,34.45
2023-04-16T05:24:51.238Z,34.48
2023-04-16T05:25:21.246Z,34.50
2023-04-16T05:25:51.260Z,34.42
2023-04-16T05:26:21.257Z,34.42
2023-04-16T05:26:51.300Z,34.37
2023-04-16T05:27:21.329Z,34.38
2023-04-16T05:27:51.342Z,34.37
2023-04-16T05:28:21.334Z,34.33
2023-04-16T05:28:51.353Z,34.38
2023-04-16T05:29:21.356Z,34.36
2023-04-16T05:29:51.377Z,34.41
2023-04-16T05:30:21.382Z,34.38
2023-04-16T05:30:51.466Z,34.36
2023-04-16T05:31:21.523Z,34.36
2023-04-16T05:31:51.569Z,34.34
2023-04-16T05:32:21.598Z,34.33
2023-04-16T05:32:51.718Z,34.32
2023-04-16T05:33:21.742Z,34.36
2023-04-16T05:33:51.733Z,34.33
2023-04-16T05:34:21.745Z,34.38
2023-04-16T05:34:51.749Z,34.36
2023-04-16T05:35:21.763Z,34.32
2023-04-16T05:35:51.766Z,34.37
2023-04-16T05:36:21.762Z,34.32
2023-04-16T05:37:21.853Z,34.35
2023-04-16T05:37:51.872Z,34.32
2023-04-16T05:38:21.884Z,34.29
2023-04-16T05:38:51.938Z,34.28
2023-04-16T05:39:21.935Z,34.31
2023-04-16T05:39:51.940Z,34.28
2023-04-16T05:40:21.946Z,34.28
2023-04-16T05:40:51.956Z,34.25
2023-04-16T05:41:21.969Z,34.30
2023-04-16T05:41:51.970Z,34.23
2023-04-16T05:42:22.005Z,34.21
2023-04-16T05:42:51.985Z,34.21
2023-04-16T05:43:21.989Z,34.23
2023-04-16T05:43:52.043Z,34.21
2023-04-16T05:44:22.017Z,34.24
2023-04-16T05:44:52.035Z,34.22
2023-04-16T05:45:22.036Z,34.29
2023-04-16T05:45:52.065Z,34.35
2023-04-16T05:46:22.121Z,34.30
2023-04-16T05:46:52.169Z,34.30
2023-04-16T05:47:22.252Z,34.30
2023-04-16T05:47:52.273Z,34.33
2023-04-16T05:48:22.332Z,34.36
2023-04-16T05:48:52.317Z,34.33
2023-04-16T05:49:52.372Z,34.33
2023-04-16T05:50:22.396Z,34.33
2023-04-16T05:50:52.420Z,34.33
2023-04-16T05:51:22.417Z,34.41
2023-04-16T05:51:52.484Z,34.35
2023-04-16T05:52:22.479Z,34.36
2023-04-16T05:53:22.564Z,34.40
2023-04-16T05:53:52.597Z,34.40
2023-04-16T05:54:22.589Z,34.37
2023-04-16T05:55:22.676Z,34.42
2023-04-16T05:55:52.685Z,34.42
2023-04-16T05:56:22.686Z,34.36
2023-04-16T05:56:52.698Z,34.43
2023-04-16T05:57:22.706Z,34.48
2023-04-16T05:57:52.701Z,34.37
2023-04-16T05:58:22.718Z,34.39
2023-04-16T05:58:52.715Z,34.39
2023-04-16T05:59:22.727Z,34.34
2023-04-16T05:59:52.816Z,34.43
2023-04-16T06:00:22.894Z,34.39
2023-04-16T06:00:52.983Z,34.40
2023-04-16T06:01:23.068Z,34.38
2023-04-16T06:01:53.195Z,34.41
2023-04-16T06:02:23.404Z,34.38
2023-04-16T06:02:53.503Z,34.41
2023-04-16T06:03:23.458Z,34.36
2023-04-16T06:03:53.538Z,34.32
2023-04-16T06:04:23.549Z,34.36
2023-04-16T06:04:53.560Z,34.33
2023-04-16T06:05:23.690Z,34.32
2023-04-16T06:05:53.796Z,34.33
2023-04-16T06:06:23.800Z,34.36
2023-04-16T06:06:53.880Z,34.39
2023-04-16T06:07:23.971Z,34.28
2023-04-16T06:07:54.058Z,34.30
2023-04-16T06:08:24.167Z,34.28
2023-04-16T06:08:54.245Z,34.25
2023-04-16T06:09:24.327Z,34.27
2023-04-16T06:09:54.354Z,34.28
2023-04-16T06:10:24.344Z,34.28
2023-04-16T06:10:54.366Z,34.23
2023-04-16T06:11:24.367Z,34.26
2023-04-16T06:11:54.367Z,34.26
2023-04-16T06:12:24.397Z,34.29
2023-04-16T06:12:54.398Z,34.27
2023-04-16T06:13:24.407Z,34.24
2023-04-16T06:13:54.405Z,34.26
2023-04-16T06:14:24.416Z,34.26
2023-04-16T06:14:54.414Z,34.33
2023-04-16T06:15:24.424Z,34.32
2023-04-16T06:15:54.499Z,34.27
2023-04-16T06:16:24.526Z,34.31
2023-04-16T06:16:54.558Z,34.20
2023-04-16T06:17:24.645Z,34.18
2023-04-16T06:17:54.788Z,34.22
2023-04-16T06:18:24.783Z,34.21
2023-04-16T06:18:54.781Z,34.22
2023-04-16T06:19:24.810Z,34.24
2023-04-16T06:19:54.791Z,34.23
2023-04-16T06:20:54.806Z,34.22
2023-04-16T06:21:24.816Z,34.24
2023-04-16T06:21:54.814Z,34.24
2023-04-16T06:22:24.816Z,34.21
2023-04-16T06:22:54.830Z,34.18
2023-04-16T06:23:24.837Z,34.24
2023-04-16T06:23:54.844Z,34.21
2023-04-16T06:24:24.851Z,34.17
2023-04-16T06:24:54.929Z,34.17
2023-04-16T06:25:24.905Z,34.17
2023-04-16T06:25:54.917Z,34.16
2023-04-16T06:26:24.941Z,34.14
2023-04-16T06:26:54.950Z,34.13
2023-04-16T06:27:24.945Z,34.12
2023-04-16T06:27:54.946Z,34.16
2023-04-16T06:28:24.957Z,34.17
2023-04-16T06:28:54.966Z,34.09
2023-04-16T06:29:36.847Z,34.14
2023-04-16T06:29:55.083Z,34.16
2023-04-16T06:30:25.086Z,34.10
2023-04-16T06:30:55.104Z,34.12
2023-04-16T06:31:25.160Z,34.09
2023-04-16T06:31:55.252Z,34.15
2023-04-16T06:32:25.258Z,34.08
2023-04-16T06:32:55.304Z,34.09
2023-04-16T06:33:25.373Z,34.07
2023-04-16T06:33:55.376Z,34.08
2023-04-16T06:34:25.390Z,34.08
2023-04-16T06:34:55.419Z,34.14
2023-04-16T06:35:25.415Z,34.10
2023-04-16T06:36:25.507Z,34.17
2023-04-16T06:36:55.533Z,34.20
2023-04-16T06:37:25.517Z,34.17
2023-04-16T06:37:55.525Z,34.20
2023-04-16T06:38:55.601Z,34.28
2023-04-16T06:39:25.619Z,34.26
2023-04-16T06:39:55.641Z,34.25
2023-04-16T06:40:25.633Z,34.24
2023-04-16T06:40:55.638Z,34.29
2023-04-16T06:41:25.655Z,34.31
2023-04-16T06:41:55.654Z,34.36